Time;durP1;ratioP1;P1;durP2;ratioP2;P2;SDS_P1;SDS_P2;PMS_P1;PMS_P2;Temp;Humidity;BMP_temperature;BMP_pressure;BME280_temperature;BME280_humidity;BME280_pressure;Samples;Min_cycle;Max_cycle;Signal;HPM_P1;HPM_P2
2023/08/30 05:14:56;;;;;;;;;2.00;2.00;;;;;22.88;44.38;100391.91;6029809;23;46223;31
2023/08/30 05:17:22;;;;;;;;;2.00;2.00;;;;;22.88;44.34;100386.63;4937353;28;46497;-36
2023/08/30 05:19:47;;;;;;;;;2.00;2.00;;;;;22.89;44.60;100385.66;4938381;28;45361;-36
2023/08/30 05:22:13;;;;;;;;;2.75;2.75;;;;;22.87;45.07;100384.97;4938285;28;45479;-36
2023/08/30 05:24:38;;;;;;;;;2.00;2.00;;;;;22.89;44.83;100388.31;4938465;28;45406;-35
2023/08/30 05:27:03;;;;;;;;;3.00;2.00;;;;;22.91;44.66;100392.53;4938674;28;45580;-37
2023/08/30 05:29:29;;;;;;;;;5.00;1.75;;;;;22.92;44.91;100396.88;4938394;28;46284;-36
2023/08/30 05:31:54;;;;;;;;;2.50;2.50;;;;;22.90;44.46;100388.22;4938455;28;45873;-37
2023/08/30 05:34:19;;;;;;;;;1.75;1.75;;;;;22.91;44.83;100386.41;4938706;28;45389;-36
2023/08/30 05:36:45;;;;;;;;;3.50;2.00;;;;;22.91;44.73;100397.84;4921324;28;45566;-34
2023/08/30 05:39:10;;;;;;;;;3.50;2.00;;;;;22.92;44.91;100393.38;4938103;28;46155;-34
2023/08/30 05:41:35;;;;;;;;;2.00;1.50;;;;;22.91;44.40;100392.53;4937814;28;48282;-36
2023/08/30 05:44:00;;;;;;;;;3.00;2.00;;;;;22.93;44.90;100392.44;4937845;28;54841;-36
2023/08/30 05:46:26;;;;;;;;;4.75;4.00;;;;;22.93;44.91;100403.00;4938203;28;45209;-36
2023/08/30 05:48:51;;;;;;;;;2.50;2.50;;;;;22.91;44.38;100392.53;4938178;28;45312;-36
2023/08/30 05:51:17;;;;;;;;;2.00;2.00;;;;;22.94;44.48;100399.41;4937731;28;45224;-37
2023/08/30 05:53:42;;;;;;;;;2.00;2.00;;;;;22.95;44.45;100401.09;4937932;28;45434;-36
2023/08/30 05:56:07;;;;;;;;;2.00;2.00;;;;;22.96;44.66;100397.50;4936371;28;51736;-37
2023/08/30 05:58:33;;;;;;;;;2.00;2.00;;;;;22.96;44.39;100395.69;4920612;28;47952;-36
2023/08/30 06:01:00;;;;;;;;;2.00;2.00;;;;;22.97;44.29;100399.19;4937665;28;45270;-37
2023/08/30 06:03:25;;;;;;;;;2.00;2.00;;;;;22.96;44.69;100408.91;4938323;28;45434;-37
2023/08/30 06:05:51;;;;;;;;;2.00;2.00;;;;;22.95;45.02;100409.03;4938110;28;45402;-35
2023/08/30 06:08:17;;;;;;;;;1.75;1.75;;;;;22.95;44.88;100409.03;4937819;28;46037;-34
2023/08/30 06:10:43;;;;;;;;;2.50;2.00;;;;;22.96;44.57;100413.34;4937810;28;45769;-35
2023/08/30 06:13:08;;;;;;;;;2.00;2.00;;;;;22.95;44.64;100411.66;4937850;28;45346;-38
2023/08/30 06:15:35;;;;;;;;;3.00;3.00;;;;;22.95;44.95;100414.31;4937953;28;45570;-36
2023/08/30 06:18:00;;;;;;;;;2.00;2.00;;;;;22.95;44.90;100409.84;4937555;28;45676;-35
2023/08/30 06:20:26;;;;;;;;;2.00;2.00;;;;;22.95;45.15;100412.50;4937279;28;65751;-35
2023/08/30 06:22:52;;;;;;;;;2.75;2.75;;;;;22.95;45.06;100409.03;4937689;28;45312;-37
2023/08/30 06:25:17;;;;;;;;;2.00;2.00;;;;;22.97;44.87;100415.03;4937686;28;45668;-38
2023/08/30 06:27:55;;;;;;;;;2.25;2.00;;;;;22.97;44.72;100409.75;4937607;28;46291;-35
2023/08/30 06:30:20;;;;;;;;;4.00;3.00;;;;;22.97;45.17;100421.16;4937333;28;45834;-38
2023/08/30 06:32:45;;;;;;;;;1.00;1.00;;;;;22.97;44.62;100409.75;4937042;28;58261;-38
2023/08/30 06:35:10;;;;;;;;;2.25;2.25;;;;;22.97;45.21;100415.88;4937299;28;45408;-36
2023/08/30 06:37:36;;;;;;;;;2.00;2.00;;;;;22.97;45.18;100412.41;4936731;28;61740;-36
2023/08/30 06:40:03;;;;;;;;;2.75;2.00;;;;;22.97;44.80;100409.75;4937338;28;45417;-36
2023/08/30 06:42:28;;;;;;;;;2.00;0.00;;;;;22.98;45.44;100414.91;4937538;28;45409;-37
2023/08/30 06:44:53;;;;;;;;;2.50;2.25;;;;;22.99;45.04;100421.03;4937447;28;51637;-36
2023/08/30 06:47:19;;;;;;;;;6.25;3.00;;;;;22.98;45.01;100409.63;4937246;28;46374;-36
2023/08/30 06:49:44;;;;;;;;;2.00;2.00;;;;;22.97;45.44;100417.69;4937250;28;45318;-36
2023/08/30 06:52:09;;;;;;;;;2.75;2.00;;;;;22.98;45.28;100422.03;4937364;28;45512;-34
2023/08/30 06:54:36;;;;;;;;;2.25;2.00;;;;;22.96;45.39;100413.34;4937259;28;47440;-36
2023/08/30 06:57:02;;;;;;;;;4.50;3.00;;;;;22.97;45.31;100409.75;4936970;28;47147;-37
2023/08/30 06:59:28;;;;;;;;;2.50;2.50;;;;;22.98;45.11;100422.03;4937515;28;45702;-37
2023/08/30 07:01:53;;;;;;;;;2.00;2.00;;;;;22.95;45.34;100416.94;4937399;28;45412;-36
2023/08/30 07:04:19;;;;;;;;;3.00;1.00;;;;;22.96;45.51;100426.56;4940600;28;45495;-37
2023/08/30 07:06:45;;;;;;;;;3.75;2.75;;;;;22.97;45.06;100422.97;4940139;28;47128;-34
2023/08/30 07:09:11;;;;;;;;;2.00;2.00;;;;;22.98;45.15;100430.78;4940466;28;45390;-34
2023/08/30 07:11:37;;;;;;;;;5.00;2.00;;;;;22.97;45.00;100428.25;4940412;28;45357;-37
2023/08/30 07:14:03;;;;;;;;;4.00;2.00;;;;;22.99;45.50;100423.69;4940607;28;45433;-37
2023/08/30 07:16:31;;;;;;;;;2.75;1.00;;;;;23.00;44.98;100428.00;4940311;28;46451;-38
2023/08/30 07:18:56;;;;;;;;;1.25;1.00;;;;;23.00;45.07;100428.88;4923620;28;45255;-36
2023/08/30 07:21:22;;;;;;;;;5.50;3.00;;;;;23.01;45.13;100425.28;4940213;28;45287;-37
2023/08/30 07:23:47;;;;;;;;;3.00;3.00;;;;;23.01;45.43;100421.78;4940296;28;45294;-35
2023/08/30 07:26:12;;;;;;;;;1.50;1.50;;;;;23.02;45.21;100418.19;4939509;28;64097;-36
2023/08/30 07:28:38;;;;;;;;;1.75;1.75;;;;;23.02;45.21;100423.47;4940074;28;45251;-34
2023/08/30 07:31:04;;;;;;;;;2.00;2.00;;;;;23.03;44.95;100421.69;4939959;28;47105;-34
2023/08/30 07:33:29;;;;;;;;;1.25;1.25;;;;;23.04;45.57;100420.72;4940559;28;45476;-35
2023/08/30 07:35:54;;;;;;;;;1.25;1.25;;;;;23.01;45.54;100425.28;4939730;28;45339;-36
2023/08/30 07:38:20;;;;;;;;;3.00;1.00;;;;;23.04;45.51;100412.81;4939823;28;45319;-37
2023/08/30 07:40:45;;;;;;;;;2.00;2.00;;;;;23.03;45.32;100419.88;4939235;28;57638;-36
2023/08/30 07:43:10;;;;;;;;;2.00;2.00;;;;;23.04;45.04;100413.63;4939573;28;53813;-37
2023/08/30 07:45:36;;;;;;;;;1.00;1.00;;;;;23.05;45.32;100420.59;4922596;28;48233;-35
2023/08/30 07:48:01;;;;;;;;;1.00;1.00;;;;;23.06;45.27;100414.38;4940011;28;45462;-36
2023/08/30 07:50:26;;;;;;;;;2.75;1.25;;;;;23.07;45.30;100428.41;4939951;28;45257;-36
2023/08/30 07:52:52;;;;;;;;;1.00;1.00;;;;;23.08;45.08;100424.81;4939996;28;45598;-34
2023/08/30 07:55:17;;;;;;;;;1.50;1.00;;;;;23.08;44.96;100422.19;4938229;28;45920;-37
2023/08/30 07:57:42;;;;;;;;;2.00;1.50;;;;;23.09;45.04;100427.38;4939738;28;46119;-36
2023/08/30 08:00:08;;;;;;;;;1.50;1.50;;;;;23.07;45.21;100424.00;4922504;28;45493;-37
2023/08/30 08:02:34;;;;;;;;;1.00;1.00;;;;;23.09;45.41;100426.50;4939849;28;45653;-37
2023/08/30 08:04:59;;;;;;;;;1.00;1.00;;;;;23.07;44.99;100418.69;4939715;28;46170;-35
2023/08/30 08:07:24;;;;;;;;;1.00;1.00;;;;;23.07;45.03;100417.84;4939462;28;45291;-37
2023/08/30 08:09:50;;;;;;;;;1.00;1.00;;;;;23.09;45.46;100415.94;4939687;28;45329;-37
2023/08/30 08:12:15;;;;;;;;;1.00;1.00;;;;;23.07;45.25;100418.69;4939054;28;53822;-36
2023/08/30 08:14:40;;;;;;;;;1.00;1.00;;;;;23.08;44.94;100414.25;4937478;28;65148;-37
2023/08/30 08:17:06;;;;;;;;;3.00;2.75;;;;;23.08;44.60;100415.09;4938686;28;60005;-37
2023/08/30 08:19:31;;;;;;;;;3.75;1.25;;;;;23.07;44.74;100415.19;4939105;28;55547;-36
2023/08/30 08:21:56;;;;;;;;;2.00;2.00;;;;;23.09;44.79;100426.50;4922158;28;45515;-37
2023/08/30 08:24:21;;;;;;;;;1.25;1.25;;;;;23.09;44.83;100423.88;4921878;28;46214;-36
2023/08/30 08:26:47;;;;;;;;;1.00;1.00;;;;;23.10;44.99;100422.91;4939135;28;45315;-35
2023/08/30 08:29:14;;;;;;;;;2.00;2.00;;;;;23.10;45.17;100418.47;4939008;28;46840;-36
2023/08/30 08:31:39;;;;;;;;;1.00;1.00;;;;;23.10;45.11;100423.75;4939414;28;45461;-36
2023/08/30 08:34:07;;;;;;;;;2.00;2.00;;;;;23.11;45.05;100425.44;4939274;28;46567;-34
2023/08/30 17:23:37;;;;;;;;;153.50;136.00;;;;;23.16;36.74;100513.19;5117329;23;45499;-41
2023/08/30 17:26:03;;;;;;;;;273.00;243.00;;;;;23.19;36.74;100521.88;4956388;28;45353;-41
2023/08/30 17:28:29;;;;;;;;;224.50;198.50;;;;;23.19;36.66;100520.09;4957334;28;45314;-42
2023/08/30 17:30:56;;;;;;;;;209.75;188.25;;;;;23.21;36.98;100517.31;4957603;28;45453;-41
2023/08/30 17:33:21;;;;;;;;;197.25;171.25;;;;;23.20;36.57;100535.00;4957220;28;47378;-41
2023/08/30 17:35:46;;;;;;;;;194.67;167.00;;;;;23.21;36.68;100525.25;4957423;28;45387;-41
2023/08/30 17:38:13;;;;;;;;;181.67;161.00;;;;;23.22;36.93;100516.38;4956058;28;45346;-42
2023/08/30 17:40:38;;;;;;;;;185.50;166.75;;;;;23.22;37.34;100519.88;4957691;28;45424;-43
2023/08/30 17:43:06;;;;;;;;;218.75;189.25;;;;;23.23;36.99;100518.91;4940127;28;46906;-43
2023/08/30 17:45:32;;;;;;;;;181.75;158.50;;;;;23.24;36.83;100520.63;4955923;28;45954;-43
2023/08/30 17:47:59;;;;;;;;;179.25;156.50;;;;;23.24;37.27;100532.97;4957165;28;45517;-42
2023/08/30 17:50:24;;;;;;;;;180.25;160.00;;;;;23.23;37.23;100529.50;4957238;28;45480;-42
2023/08/30 17:52:50;;;;;;;;;152.75;135.75;;;;;23.23;37.20;100539.22;4956876;28;46012;-42
2023/08/30 17:55:15;;;;;;;;;146.00;134.00;;;;;23.24;37.16;100536.47;4954792;28;45503;-48
2023/08/30 17:57:44;;;;;;;;;143.00;122.75;;;;;23.25;37.61;100545.25;4956155;28;45441;-46
2023/08/30 18:00:13;;;;;;;;;125.75;114.50;;;;;23.25;37.07;100548.75;4956626;28;45279;-47
2023/08/30 18:02:38;;;;;;;;;150.50;132.25;;;;;23.25;37.34;100542.59;4955927;28;46092;-45
2023/08/30 18:05:07;;;;;;;;;126.67;116.33;;;;;23.25;37.56;100545.25;4956732;28;45254;-46
2023/08/30 18:07:36;;;;;;;;;127.75;113.25;;;;;23.26;37.23;100546.94;4956423;28;45314;-45
2023/08/30 18:10:02;;;;;;;;;120.00;110.25;;;;;23.24;37.30;100555.00;4956528;28;45330;-46
2023/08/30 18:12:28;;;;;;;;;102.25;95.00;;;;;23.25;37.20;100548.75;4956066;28;46225;-45
2023/08/30 18:14:53;;;;;;;;;97.75;86.50;;;;;23.25;37.21;100546.09;4938711;28;45414;-45
2023/08/30 18:17:19;;;;;;;;;96.25;90.50;;;;;23.26;37.51;100552.22;4956461;28;45394;-45
2023/08/30 18:19:47;;;;;;;;;88.33;78.67;;;;;23.26;37.59;100554.88;4956210;28;45596;-45
2023/08/30 18:22:13;;;;;;;;;87.25;74.50;;;;;23.24;37.53;100546.19;4955799;28;46418;-45
2023/08/30 18:24:38;;;;;;;;;85.50;80.75;;;;;23.25;37.69;100554.03;4955919;28;45460;-45
2023/08/30 18:27:04;;;;;;;;;81.00;72.50;;;;;23.24;37.16;100555.00;4939128;28;45259;-46
2023/08/30 18:29:31;;;;;;;;;73.75;59.00;;;;;23.24;37.69;100551.47;4955980;28;45193;-44
2023/08/30 18:31:57;;;;;;;;;76.50;61.25;;;;;23.25;37.66;100556.69;4956011;28;45589;-44
2023/08/30 18:34:22;;;;;;;;;74.50;58.50;;;;;23.25;37.54;100553.19;4955710;28;45446;-45
2023/08/30 18:36:47;;;;;;;;;68.50;54.75;;;;;23.25;37.41;100553.19;4956158;28;45364;-44
2023/08/30 18:39:12;;;;;;;;;70.00;55.00;;;;;23.26;37.64;100560.16;4956168;28;45695;-44
2023/08/30 18:41:38;;;;;;;;;70.00;53.00;;;;;23.25;37.22;100564.63;4954969;28;63477;-42
2023/08/30 18:44:04;;;;;;;;;67.25;51.50;;;;;23.26;37.79;100573.38;4955849;28;45443;-44
2023/08/30 18:46:29;;;;;;;;;62.75;49.00;;;;;23.25;37.36;100566.41;4955656;28;45388;-43
2023/08/30 18:48:55;;;;;;;;;61.25;48.75;;;;;23.25;37.73;100569.03;4956178;28;45521;-45
2023/08/30 18:51:22;;;;;;;;;60.00;47.50;;;;;23.26;37.73;100576.03;4955528;28;45930;-45
2023/08/30 18:53:48;;;;;;;;;58.25;44.25;;;;;23.25;37.29;100574.31;4938295;28;45930;-45
2023/08/30 18:56:14;;;;;;;;;53.75;44.25;;;;;23.24;37.37;100581.44;4955924;28;45250;-44
2023/08/30 18:58:40;;;;;;;;;55.00;44.00;;;;;23.25;37.24;100584.91;4957093;28;45484;-44
2023/08/30 19:01:06;;;;;;;;;53.00;41.25;;;;;23.25;37.62;100584.91;4959269;28;46931;-43
2023/08/30 19:03:32;;;;;;;;;50.00;38.75;;;;;23.24;37.67;100588.50;4958742;28;45381;-43
2023/08/30 19:05:57;;;;;;;;;47.00;39.50;;;;;23.25;37.17;100590.19;4959118;28;45468;-44
2023/08/30 19:08:23;;;;;;;;;49.00;38.25;;;;;23.26;37.53;100591.88;4958997;28;45416;-42
2023/08/30 19:10:48;;;;;;;;;42.00;35.00;;;;;23.25;37.66;100598.97;4941506;28;46537;-44
2023/08/30 19:13:13;;;;;;;;;43.75;33.00;;;;;23.26;37.27;100602.47;4955840;28;51403;-47
2023/08/30 19:15:39;;;;;;;;;38.67;33.00;;;;;23.24;37.63;100596.44;4950979;28;59314;-47
2023/08/30 19:18:04;;;;;;;;;36.75;30.75;;;;;23.25;37.58;100606.91;4956923;28;45537;-47
2023/08/30 19:20:30;;;;;;;;;36.75;30.25;;;;;23.25;37.66;100600.78;4951787;28;46306;-46
2023/08/30 19:22:55;;;;;;;;;37.00;31.67;;;;;23.25;37.16;100606.06;4950870;28;64461;-45
2023/08/30 19:25:20;;;;;;;;;29.00;23.00;;;;;23.25;37.55;100608.69;4939167;28;45404;-43
2023/08/30 19:27:46;;;;;;;;;34.00;27.75;;;;;23.25;37.30;100614.00;4939602;28;45366;-36
2023/08/30 19:30:12;;;;;;;;;30.25;25.50;;;;;23.25;37.68;100614.00;4939212;28;46714;-38
2023/08/30 19:32:38;;;;;;;;;24.75;23.00;;;;;23.25;37.23;100614.00;4940141;28;45255;-38
2023/08/30 19:35:04;;;;;;;;;24.25;20.00;;;;;23.25;37.13;100611.34;4939715;28;45335;-36
2023/08/30 19:37:31;;;;;;;;;27.00;21.00;;;;;23.22;37.23;100612.41;4939313;28;45281;-44
2023/08/30 19:39:56;;;;;;;;;24.50;21.25;;;;;23.23;37.49;100614.09;4939026;28;46328;-44
2023/08/30 19:42:22;;;;;;;;;20.25;16.75;;;;;23.24;37.45;100612.28;4947551;28;45748;-40
2023/08/30 19:44:57;;;;;;;;;21.50;20.00;;;;;23.23;37.21;100618.53;4955150;28;45668;-42
2023/08/30 19:47:23;;;;;;;;;23.75;21.50;;;;;23.22;37.66;100617.69;4958192;28;45405;-44
2023/08/30 19:49:49;;;;;;;;;27.50;21.75;;;;;23.21;37.90;100625.72;4958329;28;46710;-46
2023/08/30 19:52:15;;;;;;;;;22.67;18.33;;;;;23.22;37.17;100617.69;4957374;28;66664;-47
2023/08/30 19:54:40;;;;;;;;;19.00;15.50;;;;;23.23;37.66;100627.31;4957897;28;45290;-46
2023/08/30 19:57:06;;;;;;;;;19.50;18.25;;;;;23.22;37.88;100620.34;4958797;28;45339;-43
2023/08/30 19:59:32;;;;;;;;;15.75;14.00;;;;;23.23;37.30;100623.81;4957671;28;47549;-44
2023/08/30 20:01:59;;;;;;;;;15.00;13.00;;;;;23.22;37.22;100627.41;4958034;28;45351;-45
2023/08/30 20:04:24;;;;;;;;;20.25;14.75;;;;;23.21;37.15;100633.66;4958000;28;45419;-37
2023/08/30 20:06:51;;;;;;;;;20.25;15.25;;;;;23.22;37.40;100638.84;4958310;28;45335;-40
2023/08/30 20:09:16;;;;;;;;;14.00;13.00;;;;;23.23;37.51;100639.69;4957830;28;46303;-40
2023/08/30 20:11:42;;;;;;;;;16.50;14.00;;;;;23.20;37.13;100638.09;4952962;28;45494;-44
2023/08/30 20:14:08;;;;;;;;;13.25;13.00;;;;;23.21;36.91;100638.94;4939145;28;45454;-42
2023/08/30 20:16:33;;;;;;;;;15.75;13.50;;;;;23.22;37.28;100640.63;4938911;28;45501;-46
2023/08/30 20:18:58;;;;;;;;;12.50;12.50;;;;;23.19;37.45;100633.78;4925018;28;66981;-46
2023/08/30 20:21:24;;;;;;;;;17.25;13.25;;;;;23.20;37.58;100638.09;4957292;28;45416;-44
2023/08/30 20:23:49;;;;;;;;;13.25;11.75;;;;;23.21;37.26;100638.94;4957448;28;45507;-34
2023/08/30 20:26:15;;;;;;;;;12.25;12.00;;;;;23.21;37.56;100646.88;4958173;28;45265;-36
2023/08/30 20:28:41;;;;;;;;;9.00;9.00;;;;;23.20;37.81;100646.03;4955300;28;46102;-38
2023/08/30 20:31:09;;;;;;;;;11.00;11.00;;;;;23.20;37.88;100650.50;4958073;28;45485;-43
2023/08/30 20:33:35;;;;;;;;;11.50;10.25;;;;;23.20;37.23;100655.78;4940667;28;45301;-45
2023/08/30 20:36:04;;;;;;;;;10.75;8.00;;;;;23.20;37.63;100655.78;4938719;28;45861;-43
2023/08/30 20:38:30;;;;;;;;;10.75;10.75;;;;;23.20;37.67;100663.72;4938071;28;46598;-44
2023/08/30 20:40:55;;;;;;;;;11.00;10.50;;;;;23.20;37.41;100671.66;4937864;28;45456;-42
2023/08/30 20:43:21;;;;;;;;;11.00;10.00;;;;;23.20;37.24;100671.66;4952252;28;45389;-42
2023/08/30 20:45:47;;;;;;;;;9.25;7.75;;;;;23.20;37.35;100663.72;4945318;28;45434;-43
2023/08/30 20:48:12;;;;;;;;;14.25;9.00;;;;;23.20;37.45;100667.19;4957822;28;47083;-42
2023/08/30 20:50:38;;;;;;;;;11.25;11.00;;;;;23.20;37.73;100666.34;4958472;28;45342;-42
2023/08/30 20:53:05;;;;;;;;;11.00;9.50;;;;;23.17;37.78;100657.66;4958158;28;45370;-42
2023/08/30 20:55:30;;;;;;;;;11.50;10.25;;;;;23.21;37.66;100668.03;4958332;28;45427;-42
2023/08/30 20:57:55;;;;;;;;;10.00;6.00;;;;;23.20;37.87;100663.72;4938829;28;46264;-42
2023/08/30 21:00:21;;;;;;;;;8.50;7.00;;;;;23.17;37.57;100662.94;4956601;28;50610;-42
2023/08/30 21:02:46;;;;;;;;;8.25;7.00;;;;;23.18;37.95;100666.41;4957963;28;45314;-42
2023/08/30 21:05:12;;;;;;;;;5.00;5.00;;;;;23.17;37.46;100668.22;4957801;28;47072;-43
2023/08/30 21:07:38;;;;;;;;;8.75;8.75;;;;;23.18;37.76;100671.69;4958215;28;46205;-42
2023/08/30 21:10:04;;;;;;;;;5.00;5.00;;;;;23.19;38.16;100669.91;4957676;28;46213;-41
2023/08/30 21:12:29;;;;;;;;;7.00;6.00;;;;;23.16;38.04;100671.81;4940721;28;45392;-40
2023/08/30 21:14:55;;;;;;;;;7.00;5.25;;;;;23.19;37.54;100672.56;4957987;28;45440;-40
2023/08/30 21:17:20;;;;;;;;;8.00;6.00;;;;;23.19;37.91;100672.56;4957633;28;45410;-41
2023/08/30 21:19:45;;;;;;;;;6.50;4.50;;;;;23.20;37.96;100676.94;4957710;28;45365;-41
2023/08/30 21:22:10;;;;;;;;;7.50;6.00;;;;;23.19;37.63;100672.56;4957185;28;45465;-42
2023/08/30 21:24:38;;;;;;;;;10.00;6.75;;;;;23.20;37.61;100674.28;4958092;28;45373;-43
2023/08/30 21:27:03;;;;;;;;;5.25;4.25;;;;;23.19;38.09;100678.72;4957492;28;46115;-42
2023/08/30 21:29:29;;;;;;;;;7.50;6.25;;;;;23.19;37.88;100678.72;4957556;28;45325;-42
2023/08/30 21:31:54;;;;;;;;;7.50;6.25;;;;;23.19;37.94;100681.38;4957207;28;55301;-42
2023/08/30 21:34:20;;;;;;;;;3.00;3.00;;;;;23.19;37.84;100680.50;4957718;28;45493;-42
2023/08/30 21:36:45;;;;;;;;;7.00;6.00;;;;;23.20;37.62;100687.50;4957297;28;46684;-43
2023/08/30 21:39:15;;;;;;;;;6.75;5.50;;;;;23.18;38.29;100679.63;4957713;28;45295;-43
2023/08/30 21:41:40;;;;;;;;;5.50;4.75;;;;;23.19;37.91;100680.50;4957776;28;45393;-43
2023/08/30 21:44:06;;;;;;;;;5.00;5.00;;;;;23.19;38.21;100685.78;4957667;28;45699;-42
2023/08/30 21:46:31;;;;;;;;;3.75;3.50;;;;;23.17;37.79;100684.09;4957307;28;46093;-43
2023/08/30 21:48:56;;;;;;;;;7.75;4.00;;;;;23.17;38.08;100677.94;4957326;28;45421;-43
2023/08/30 21:51:22;;;;;;;;;6.00;6.00;;;;;23.17;37.67;100678.81;4957421;28;45275;-43
2023/08/30 21:53:47;;;;;;;;;9.25;5.75;;;;;23.17;38.32;100686.72;4957512;28;45644;-42
2023/08/30 21:56:12;;;;;;;;;5.33;5.00;;;;;23.17;38.08;100684.09;4956741;28;66497;-42
2023/08/30 21:58:38;;;;;;;;;9.50;5.00;;;;;23.17;37.88;100677.94;4956933;28;49482;-42
2023/08/30 22:01:03;;;;;;;;;5.75;5.75;;;;;23.18;38.16;100687.56;4940050;28;45437;-42
2023/08/30 22:03:28;;;;;;;;;4.00;4.00;;;;;23.16;38.24;100678.88;4956189;28;45567;-42
2023/08/30 22:06:00;;;;;;;;;4.75;4.00;;;;;23.17;37.81;100681.44;4957344;28;45363;-42
2023/08/30 22:08:26;;;;;;;;;3.75;3.75;;;;;23.18;37.99;100687.56;4939699;28;45878;-43
2023/08/30 22:10:51;;;;;;;;;5.50;5.50;;;;;23.16;37.86;100685.03;4957164;28;45374;-42
2023/08/30 22:13:18;;;;;;;;;6.00;4.50;;;;;23.17;37.98;100686.72;4957329;28;45442;-43
2023/08/30 22:15:43;;;;;;;;;3.50;2.00;;;;;23.17;38.17;100689.38;4957153;28;46049;-42
2023/08/30 22:18:08;;;;;;;;;4.25;4.00;;;;;23.16;38.23;100692.09;4956712;28;50813;-42
2023/08/30 22:20:34;;;;;;;;;4.25;4.25;;;;;23.16;37.88;100692.97;4957001;28;45351;-44
2023/08/30 22:22:59;;;;;;;;;4.25;3.00;;;;;23.16;38.30;100687.69;4956840;28;45501;-43
2023/08/30 22:25:24;;;;;;;;;7.00;5.00;;;;;23.16;38.41;100692.97;4956863;28;46400;-43
2023/08/30 22:27:49;;;;;;;;;4.00;3.25;;;;;23.16;38.02;100682.41;4956824;28;45313;-43
2023/08/30 22:30:15;;;;;;;;;7.75;4.25;;;;;23.16;38.54;100685.03;4957119;28;46245;-41
2023/08/30 22:32:42;;;;;;;;;3.00;1.75;;;;;23.16;38.08;100686.81;4957381;28;45239;-44
2023/08/30 22:35:10;;;;;;;;;4.50;3.00;;;;;23.15;38.38;100686.00;4960058;28;46093;-43
2023/08/30 22:37:37;;;;;;;;;5.25;4.00;;;;;23.16;38.20;100690.31;4960191;28;45826;-44
2023/08/30 22:40:08;;;;;;;;;4.00;4.00;;;;;23.15;38.34;100682.50;4942720;28;45439;-43
2023/08/30 22:42:34;;;;;;;;;5.00;4.00;;;;;23.15;38.31;100683.34;4942831;28;45507;-43
2023/08/30 22:44:59;;;;;;;;;5.00;4.25;;;;;23.15;38.30;100690.44;4942745;28;46445;-43
2023/08/30 22:47:25;;;;;;;;;3.25;2.75;;;;;23.15;38.02;100682.50;4960003;28;45308;-43
2023/08/30 22:49:50;;;;;;;;;4.25;3.75;;;;;23.15;38.06;100685.16;4959969;28;45417;-43
2023/08/30 22:52:16;;;;;;;;;3.75;3.75;;;;;23.15;38.30;100687.81;4960525;28;45278;-43
2023/08/30 22:54:41;;;;;;;;;3.00;2.50;;;;;23.14;38.17;100694.88;4960004;28;45350;-43
2023/08/30 22:57:06;;;;;;;;;4.00;3.00;;;;;23.13;38.26;100690.53;4959864;28;45891;-42
2023/08/30 22:59:35;;;;;;;;;3.00;3.00;;;;;23.14;38.54;100692.22;4959941;28;45480;-43
2023/08/30 23:02:00;;;;;;;;;3.00;3.00;;;;;23.14;37.97;100702.78;4958920;28;45671;-43
2023/08/30 23:04:25;;;;;;;;;3.00;3.00;;;;;23.13;38.11;100698.47;4959607;28;46570;-43
2023/08/30 23:06:51;;;;;;;;;4.00;3.00;;;;;23.12;38.02;100696.75;4959814;28;45240;-43
2023/08/30 23:09:20;;;;;;;;;2.25;2.25;;;;;23.12;38.48;100694.13;4960190;28;45390;-42
2023/08/30 23:11:47;;;;;;;;;5.00;3.50;;;;;23.13;38.48;100693.19;4960181;28;45472;-42
2023/08/30 23:14:12;;;;;;;;;3.00;3.00;;;;;23.12;38.44;100691.47;4959341;28;46413;-42
2023/08/30 23:16:38;;;;;;;;;2.25;2.00;;;;;23.13;38.51;100692.34;4959579;28;45453;-42
2023/08/30 23:19:03;;;;;;;;;4.50;3.00;;;;;23.13;37.93;100687.06;4959491;28;45876;-43
2023/08/30 23:21:29;;;;;;;;;5.00;3.00;;;;;23.13;38.21;100692.34;4959941;28;45338;-43
2023/08/30 23:23:57;;;;;;;;;2.00;2.00;;;;;23.12;38.19;100680.91;4959086;28;45383;-42
2023/08/30 23:26:23;;;;;;;;;2.75;2.00;;;;;23.12;38.26;100680.91;4959475;28;45338;-42
2023/08/30 23:28:50;;;;;;;;;2.00;2.00;;;;;23.12;38.17;100694.13;4959981;28;45362;-43
2023/08/30 23:31:16;;;;;;;;;2.00;2.00;;;;;23.12;38.06;100691.47;4959945;28;45552;-43
2023/08/30 23:33:43;;;;;;;;;3.00;2.75;;;;;23.12;38.46;100696.75;4959228;28;45619;-43
2023/08/30 23:36:08;;;;;;;;;3.00;3.00;;;;;23.12;38.43;100691.47;4959265;28;45425;-43
2023/08/30 23:38:33;;;;;;;;;3.00;1.25;;;;;23.10;38.13;100688.09;4959325;28;45389;-42
2023/08/30 23:40:59;;;;;;;;;5.50;2.00;;;;;23.12;38.69;100691.47;4959522;28;45232;-43
2023/08/30 23:43:24;;;;;;;;;3.00;2.00;;;;;23.11;38.56;100695.06;4941458;28;46005;-43
2023/08/30 23:45:52;;;;;;;;;2.00;2.00;;;;;23.10;38.20;100688.09;4958891;28;51514;-43
2023/08/30 23:48:18;;;;;;;;;3.00;1.00;;;;;23.10;38.32;100690.72;4959480;28;45349;-42
2023/08/30 23:50:45;;;;;;;;;2.00;2.00;;;;;23.11;37.91;100692.44;4959287;28;45387;-43
2023/08/30 23:53:10;;;;;;;;;2.00;2.00;;;;;23.09;38.19;100691.72;4959052;28;46201;-42
2023/08/30 23:55:36;;;;;;;;;2.00;2.00;;;;;23.10;38.42;100687.25;4959115;28;45401;-43
2023/08/30 23:58:01;;;;;;;;;3.00;2.00;;;;;23.10;38.67;100698.66;4959048;28;45492;-42
